Time;durP1;ratioP1;P1;durP2;ratioP2;P2;SDS_P1;SDS_P2;PMS_P1;PMS_P2;Temp;Humidity;BMP_temperature;BMP_pressure;BME280_temperature;BME280_humidity;BME280_pressure;Samples;Min_cycle;Max_cycle;Signal;HPM_P1;HPM_P2
2023/06/14 00:00:48;;;;;;;;;;;17.40;99.90;;;;;;4593606;19;19938;-23
2023/06/14 00:02:39;;;;;;;;;;;17.40;99.90;;;;;;4591043;19;19914;-23
2023/06/14 00:04:10;;;;;;;;;;;17.40;99.90;;;;;;4591827;19;20254;-23
2023/06/14 00:05:43;;;;;;;;;;;17.40;99.90;;;;;;4591372;19;19911;-26
2023/06/14 00:07:16;;;;;;;;;;;17.30;99.90;;;;;;4591335;19;20278;-24
2023/06/14 00:08:47;;;;;;;;;;;17.40;99.90;;;;;;4590370;19;19919;-29
2023/06/14 00:10:18;;;;;;;;;;;17.30;99.90;;;;;;4591452;19;19983;-23
2023/06/14 00:11:49;;;;;;;;;;;17.30;99.90;;;;;;4591131;19;19919;-24
2023/06/14 00:13:20;;;;;;;;;;;17.30;99.90;;;;;;4591312;19;19907;-23
2023/06/14 04:10:14;;;;;;;;;;;17.20;99.90;;;;;;4594810;19;19930;-24
2023/06/14 04:11:46;;;;;;;;;;;17.20;99.90;;;;;;4594654;19;20337;-25
2023/06/14 04:13:18;;;;;;;;;;;17.20;99.90;;;;;;4592954;19;19915;-25
2023/06/14 04:16:39;;;;;;;;;;;17.80;99.90;;;;;;4593367;19;20351;-25
2023/06/14 04:18:10;;;;;;;;;;;18.50;99.90;;;;;;4593129;19;19919;-26
2023/06/14 04:19:41;;;;;;;;;;;19.00;99.90;;;;;;4591466;19;19922;-24
2023/06/14 04:21:12;;;;;;;;;;;19.30;99.90;;;;;;4593006;19;20318;-23
2023/06/14 04:22:43;;;;;;;;;;;19.50;99.90;;;;;;4593911;19;20253;-22
2023/06/14 04:24:14;;;;;;;;;;;19.80;99.90;;;;;;4594068;19;20418;-24
2023/06/14 04:25:46;;;;;;;;;;;19.90;99.90;;;;;;4591890;19;19915;-24
2023/06/14 04:27:21;;;;;;;;;;;20.10;99.90;;;;;;4592778;19;19986;-30
2023/06/14 04:28:52;;;;;;;;;;;20.20;99.90;;;;;;4593289;19;20304;-27
2023/06/14 04:30:26;;;;;;;;;;;20.30;99.90;;;;;;4593771;19;19927;-25
2023/06/14 04:32:01;;;;;;;;;;;20.40;99.90;;;;;;4592987;19;19919;-24
2023/06/14 04:33:42;;;;;;;;;;;20.50;99.90;;;;;;4590815;19;19931;-24
2023/06/14 04:35:14;;;;;;;;;;;20.60;99.90;;;;;;4591477;19;19915;-25
2023/06/14 04:36:49;;;;;;;;;;;20.70;99.90;;;;;;4593332;19;19991;-24
2023/06/14 04:38:25;;;;;;;;;;;20.70;99.90;;;;;;4591862;19;20290;-24
2023/06/14 04:39:56;;;;;;;;;;;20.80;99.90;;;;;;4592087;19;19970;-28
2023/06/14 04:41:30;;;;;;;;;;;20.90;99.90;;;;;;4593391;19;19921;-24
2023/06/14 04:43:05;;;;;;;;;;;20.90;99.90;;;;;;4592235;19;19967;-23
2023/06/14 04:44:36;;;;;;;;;;;21.00;99.90;;;;;;4591627;19;19975;-23
2023/06/14 04:46:10;;;;;;;;;;;21.00;99.90;;;;;;4592040;19;19922;-24
2023/06/14 04:47:41;;;;;;;;;;;21.10;99.90;;;;;;4592989;19;19923;-24
2023/06/14 04:49:15;;;;;;;;;;;21.10;99.90;;;;;;4591849;19;19922;-29
2023/06/14 04:50:48;;;;;;;;;;;21.10;99.90;;;;;;4592202;19;19926;-24
2023/06/14 04:52:20;;;;;;;;;;;21.20;99.90;;;;;;4592649;19;19983;-27
2023/06/14 04:53:56;;;;;;;;;;;21.20;99.90;;;;;;4592828;19;19915;-24
2023/06/14 04:55:27;;;;;;;;;;;21.20;99.90;;;;;;4592518;19;19953;-29
2023/06/14 04:56:59;;;;;;;;;;;21.30;99.90;;;;;;4592492;19;19915;-23
2023/06/14 04:58:30;;;;;;;;;;;21.30;99.90;;;;;;4591806;19;19919;-26
2023/06/14 05:00:04;;;;;;;;;;;21.30;99.90;;;;;;4591355;19;19918;-24
2023/06/14 05:01:37;;;;;;;;;;;21.40;99.90;;;;;;4593004;19;19922;-26
2023/06/14 05:03:08;;;;;;;;;;;21.40;99.90;;;;;;4591318;19;19915;-25
2023/06/14 05:04:40;;;;;;;;;;;21.40;99.90;;;;;;4592143;19;20353;-27
2023/06/14 05:06:12;;;;;;;;;;;21.40;99.90;;;;;;4593067;19;19918;-25
2023/06/14 05:07:43;;;;;;;;;;;21.50;99.90;;;;;;4592034;19;19952;-24
2023/06/14 05:09:18;;;;;;;;;;;21.50;99.90;;;;;;4591965;19;19945;-23
2023/06/14 05:10:49;;;;;;;;;;;21.50;99.90;;;;;;4591087;19;19934;-22
2023/06/14 05:12:20;;;;;;;;;;;21.60;99.90;;;;;;4592604;19;19922;-24
2023/06/14 05:13:51;;;;;;;;;;;21.70;99.90;;;;;;4592006;19;19918;-25
2023/06/14 05:15:25;;;;;;;;;;;21.80;99.90;;;;;;4590889;19;19919;-28
2023/06/14 05:16:57;;;;;;;;;;;22.00;99.90;;;;;;4591638;19;19914;-27
2023/06/14 05:18:28;;;;;;;;;;;22.20;99.90;;;;;;4592202;19;19911;-26
2023/06/14 05:19:59;;;;;;;;;;;22.30;99.90;;;;;;4590906;19;19920;-25
2023/06/14 05:22:02;;;;;;;;;;;22.50;99.90;;;;;;4591586;19;19933;-23
2023/06/14 05:23:34;;;;;;;;;;;22.60;99.90;;;;;;4591648;19;19911;-24
2023/06/14 05:25:06;;;;;;;;;;;22.80;99.90;;;;;;4592033;19;19923;-30
2023/06/14 05:26:37;;;;;;;;;;;22.90;99.90;;;;;;4592807;19;19919;-25
2023/06/14 05:28:09;;;;;;;;;;;23.00;99.90;;;;;;4591706;19;19937;-23
2023/06/14 05:29:41;;;;;;;;;;;23.10;99.90;;;;;;4589253;19;19922;-24
2023/06/14 05:31:12;;;;;;;;;;;23.20;99.90;;;;;;4591969;19;19922;-27
2023/06/14 05:32:43;;;;;;;;;;;23.30;99.90;;;;;;4591732;19;19911;-25
2023/06/14 05:34:14;;;;;;;;;;;23.30;99.90;;;;;;4592076;19;19931;-27
2023/06/14 05:35:46;;;;;;;;;;;23.40;99.90;;;;;;4590505;19;19925;-23
2023/06/14 05:37:17;;;;;;;;;;;23.50;99.90;;;;;;4590355;19;19912;-25
2023/06/14 05:38:50;;;;;;;;;;;23.50;99.90;;;;;;4590586;19;19919;-25
2023/06/14 05:40:21;;;;;;;;;;;23.50;99.90;;;;;;4590639;19;19919;-25
2023/06/14 05:41:52;;;;;;;;;;;23.60;99.90;;;;;;4590077;19;19991;-29
2023/06/14 05:43:23;;;;;;;;;;;23.50;99.90;;;;;;4591937;19;20002;-23
2023/06/14 05:44:55;;;;;;;;;;;23.60;99.90;;;;;;4590121;19;19915;-22
2023/06/14 05:46:26;;;;;;;;;;;23.60;99.90;;;;;;4590757;19;19914;-24
2023/06/14 05:47:58;;;;;;;;;;;23.60;99.90;;;;;;4590314;19;19934;-27
2023/06/14 05:49:29;;;;;;;;;;;23.60;99.90;;;;;;4591125;19;19978;-24
2023/06/14 05:51:00;;;;;;;;;;;23.50;99.90;;;;;;4591559;19;19936;-29
2023/06/14 05:52:31;;;;;;;;;;;23.50;99.90;;;;;;4590296;19;19934;-24
2023/06/14 05:54:02;;;;;;;;;;;23.60;99.90;;;;;;4590566;19;19922;-24
2023/06/14 05:55:36;;;;;;;;;;;23.50;99.90;;;;;;4590847;19;19915;-25
2023/06/14 05:57:07;;;;;;;;;;;23.40;99.90;;;;;;4589287;19;19919;-25
2023/06/14 05:58:39;;;;;;;;;;;23.40;99.90;;;;;;4591087;19;19979;-22
2023/06/14 06:00:16;;;;;;;;;;;23.40;99.90;;;;;;4590804;19;19915;-24
2023/06/14 06:01:48;;;;;;;;;;;23.40;99.90;;;;;;4591789;19;20264;-27
2023/06/14 06:03:19;;;;;;;;;;;23.40;99.90;;;;;;4590523;19;19954;-25
2023/06/14 06:04:50;;;;;;;;;;;23.30;99.90;;;;;;4589710;19;19915;-27
2023/06/14 06:06:21;;;;;;;;;;;23.40;99.90;;;;;;4590933;19;20348;-26
2023/06/14 06:07:52;;;;;;;;;;;23.40;99.90;;;;;;4588876;19;19919;-26
2023/06/14 06:09:25;;;;;;;;;;;23.30;99.90;;;;;;4588124;19;19927;-23
2023/06/14 06:10:57;;;;;;;;;;;23.30;99.90;;;;;;4588520;19;19949;-26
2023/06/14 06:12:28;;;;;;;;;;;23.30;99.90;;;;;;4588558;19;20333;-24
2023/06/14 06:13:59;;;;;;;;;;;23.30;99.90;;;;;;4588045;19;19915;-26
2023/06/14 06:15:30;;;;;;;;;;;23.30;99.90;;;;;;4588924;19;19946;-24
2023/06/14 06:17:02;;;;;;;;;;;23.30;99.90;;;;;;4591023;19;20290;-24
2023/06/14 06:18:34;;;;;;;;;;;23.30;99.90;;;;;;4590157;19;20359;-28
2023/06/14 06:20:08;;;;;;;;;;;23.20;99.90;;;;;;4589226;19;19923;-23
2023/06/14 06:21:57;;;;;;;;;;;23.10;99.90;;;;;;4590466;19;19929;-28
2023/06/14 06:23:28;;;;;;;;;;;23.10;99.90;;;;;;4591005;19;19911;-23
2023/06/14 06:25:00;;;;;;;;;;;23.10;99.90;;;;;;4590451;19;19940;-25
2023/06/14 06:26:31;;;;;;;;;;;23.10;99.90;;;;;;4590365;19;19918;-23
2023/06/14 06:30:26;;;;;;;;;;;23.10;99.90;;;;;;4590962;19;20010;-24
2023/06/14 06:31:58;;;;;;;;;;;23.10;99.90;;;;;;4589596;19;19930;-24
2023/06/14 06:33:29;;;;;;;;;;;23.10;99.90;;;;;;4590305;19;20337;-25
2023/06/14 06:35:02;;;;;;;;;;;23.20;99.90;;;;;;4589534;19;19970;-28
2023/06/14 06:36:35;;;;;;;;;;;23.20;99.90;;;;;;4589235;19;19983;-25
2023/06/14 06:38:06;;;;;;;;;;;23.20;99.90;;;;;;4588283;19;19970;-24
2023/06/14 06:39:52;;;;;;;;;;;23.30;99.90;;;;;;4588784;19;19911;-25
2023/06/14 06:41:24;;;;;;;;;;;23.30;99.90;;;;;;4592685;19;19946;-24
2023/06/14 06:42:55;;;;;;;;;;;23.30;99.90;;;;;;4593026;19;19926;-27
2023/06/14 06:44:27;;;;;;;;;;;23.30;99.90;;;;;;4594645;19;19936;-28
2023/06/14 06:45:58;;;;;;;;;;;23.40;99.90;;;;;;4594256;19;19955;-25
2023/06/14 06:47:29;;;;;;;;;;;23.40;99.90;;;;;;4593928;19;19922;-24
2023/06/14 06:49:00;;;;;;;;;;;23.40;99.90;;;;;;4595032;19;19937;-24
2023/06/14 06:50:32;;;;;;;;;;;23.50;99.90;;;;;;4595289;19;20352;-27
2023/06/14 06:52:04;;;;;;;;;;;23.50;99.90;;;;;;4595665;19;19911;-25
2023/06/14 06:53:37;;;;;;;;;;;23.50;99.90;;;;;;4593956;19;19918;-25
2023/06/14 06:55:11;;;;;;;;;;;23.50;99.90;;;;;;4594343;19;19922;-24
2023/06/14 06:56:42;;;;;;;;;;;23.50;99.90;;;;;;4594234;19;19923;-27
2023/06/14 06:58:13;;;;;;;;;;;23.50;99.90;;;;;;4594394;19;19929;-28
2023/06/14 06:59:45;;;;;;;;;;;21.60;99.90;;;;;;4593505;19;20269;-24
2023/06/14 07:01:16;;;;;;;;;;;20.10;99.90;;;;;;4594351;19;19932;-24
2023/06/14 07:02:47;;;;;;;;;;;19.30;99.90;;;;;;4594131;19;19959;-24
2023/06/14 07:04:19;;;;;;;;;;;18.70;99.90;;;;;;4594415;19;19934;-23
2023/06/14 07:05:52;;;;;;;;;;;18.50;99.90;;;;;;4593997;19;19918;-28
2023/06/14 07:07:24;;;;;;;;;;;18.20;99.90;;;;;;4593689;19;20035;-23
2023/06/14 07:09:01;;;;;;;;;;;18.20;99.90;;;;;;4593027;19;19923;-26
2023/06/14 07:10:32;;;;;;;;;;;18.10;99.90;;;;;;4593499;19;20270;-24
2023/06/14 07:12:03;;;;;;;;;;;18.00;99.90;;;;;;4594484;19;19921;-28
2023/06/14 07:13:35;;;;;;;;;;;18.00;99.90;;;;;;4593693;19;19933;-22
2023/06/14 07:15:09;;;;;;;;;;;18.00;99.90;;;;;;4592695;19;19933;-28
2023/06/14 07:37:04;;;;;;;;;;;17.90;99.90;;;;;;4593711;19;19919;-23
2023/06/14 07:38:36;;;;;;;;;;;17.90;99.90;;;;;;4594777;19;20412;-24
2023/06/14 07:40:10;;;;;;;;;;;17.80;99.90;;;;;;4593998;19;19919;-24
2023/06/14 07:41:41;;;;;;;;;;;17.80;99.90;;;;;;4593778;19;20267;-24
2023/06/14 07:43:12;;;;;;;;;;;17.90;99.90;;;;;;4594048;19;19923;-27
2023/06/14 07:54:14;;;;;;;;;;;17.90;99.90;;;;;;4594506;19;19911;-26
2023/06/14 07:55:47;;;;;;;;;;;17.80;99.90;;;;;;4592852;19;19958;-26
2023/06/14 07:57:20;;;;;;;;;;;17.80;99.90;;;;;;4592782;19;19918;-23
2023/06/14 07:58:50;;;;;;;;;;;17.80;99.90;;;;;;4593989;19;19919;-26
2023/06/14 08:00:22;;;;;;;;;;;17.80;99.90;;;;;;4592492;19;19923;-24
2023/06/14 08:01:53;;;;;;;;;;;17.90;99.90;;;;;;4593288;19;19963;-26
2023/06/14 08:05:14;;;;;;;;;;;17.80;99.90;;;;;;4593219;19;19919;-24
2023/06/14 12:38:12;;;;;;;;;;;18.60;99.90;;;;;;4571664;19;20698;-22
2023/06/14 12:39:44;;;;;;;;;;;18.60;99.90;;;;;;4592213;19;19931;-23
2023/06/14 12:41:15;;;;;;;;;;;18.60;99.90;;;;;;4592755;19;20320;-25
2023/06/14 12:42:49;;;;;;;;;;;18.60;99.90;;;;;;4592785;19;19934;-22
2023/06/14 12:45:41;;;;;;;7.15;5.05;;;18.60;99.90;;;;;;4610864;19;20382;-28
2023/06/14 12:47:13;;;;;;;;;;;18.70;99.90;;;;;;4614139;19;20019;-35
2023/06/14 12:48:52;;;;;;;6.75;5.65;;;18.60;99.90;;;;;;4613590;19;19950;-27
2023/06/14 12:50:23;;;;;;;;;;;18.60;99.90;;;;;;4612438;19;20039;-26
2023/06/14 12:51:55;;;;;;;7.18;5.53;;;18.60;99.90;;;;;;4612223;19;19978;-25
2023/06/14 12:53:27;;;;;;;6.38;5.53;;;18.60;99.90;;;;;;4611702;19;20024;-30
2023/06/14 12:54:59;;;;;;;5.28;4.78;;;18.60;99.90;;;;;;4612452;19;20011;-33
2023/06/14 12:56:33;;;;;;;7.15;5.72;;;18.70;99.90;;;;;;4612441;19;20010;-25
2023/06/14 12:58:04;;;;;;;6.30;4.95;;;18.70;99.90;;;;;;4612468;19;20070;-27
2023/06/14 12:59:36;;;;;;;5.88;5.22;;;18.70;99.90;;;;;;4612952;19;20011;-25
2023/06/14 13:01:07;;;;;;;8.18;5.20;;;18.70;99.90;;;;;;4612529;19;20006;-25
2023/06/14 13:02:40;;;;;;;6.47;5.07;;;18.70;99.90;;;;;;4611509;19;19999;-24
2023/06/14 13:04:13;;;;;;;5.68;4.78;;;18.70;99.90;;;;;;4610186;19;20027;-30
2023/06/14 13:05:46;;;;;;;7.60;4.82;;;18.70;99.90;;;;;;4612403;19;20015;-26
2023/06/14 13:07:17;;;;;;;;;;;18.70;99.90;;;;;;4612502;19;20006;-25
2023/06/14 13:08:49;;;;;;;6.55;5.07;;;18.70;99.90;;;;;;4611881;19;20344;-35
2023/06/14 13:10:20;;;;;;;;;;;18.70;99.90;;;;;;4612382;19;20103;-29
2023/06/14 13:11:52;;;;;;;5.75;4.75;;;18.70;99.90;;;;;;4611798;19;19935;-25
2023/06/14 13:13:25;;;;;;;5.63;4.88;;;18.70;99.90;;;;;;4612347;19;20497;-34
2023/06/14 13:14:56;;;;;;;;;;;18.70;99.90;;;;;;4613009;19;20090;-28
2023/06/14 13:16:27;;;;;;;7.25;5.00;;;18.70;99.90;;;;;;4611866;19;19933;-29
2023/06/14 13:18:00;;;;;;;6.07;4.45;;;18.70;99.90;;;;;;4612206;19;20025;-25
2023/06/14 13:19:34;;;;;;;5.53;4.70;;;18.70;99.90;;;;;;4612329;19;20018;-25
2023/06/14 13:21:07;;;;;;;5.22;4.55;;;18.70;99.90;;;;;;4610810;19;20010;-30
2023/06/14 13:22:39;;;;;;;6.28;5.05;;;18.70;99.90;;;;;;4611827;19;20011;-25
2023/06/14 13:24:13;;;;;;;5.55;4.68;;;18.70;99.90;;;;;;4610354;19;20009;-25
2023/06/14 13:25:46;;;;;;;6.45;5.32;;;18.70;99.90;;;;;;4610990;19;19998;-26
